sensor_id;sensor_type;location;lat;lon;timestamp;P1;durP1;ratioP1;P2;durP2;ratioP2
17259;SDS011;8746;49.230;9.220;2024-01-15T00:02:01;40.00;;;19.07;;
17259;SDS011;8746;49.230;9.220;2024-01-15T00:04:28;39.93;;;18.60;;
17259;SDS011;8746;49.230;9.220;2024-01-15T00:06:53;35.53;;;16.97;;
17259;SDS011;8746;49.230;9.220;2024-01-15T00:09:18;37.73;;;16.50;;
17259;SDS011;8746;49.230;9.220;2024-01-15T00:11:44;39.63;;;17.50;;
17259;SDS011;8746;49.230;9.220;2024-01-15T00:14:09;37.53;;;16.93;;
17259;SDS011;8746;49.230;9.220;2024-01-15T00:16:35;41.60;;;18.37;;
17259;SDS011;8746;49.230;9.220;2024-01-15T00:19:00;37.57;;;18.40;;
17259;SDS011;8746;49.230;9.220;2024-01-15T00:21:25;37.13;;;16.13;;
17259;SDS011;8746;49.230;9.220;2024-01-15T00:23:52;39.10;;;17.67;;
17259;SDS011;8746;49.230;9.220;2024-01-15T00:26:17;37.50;;;18.20;;
17259;SDS011;8746;49.230;9.220;2024-01-15T00:28:42;38.23;;;17.43;;
17259;SDS011;8746;49.230;9.220;2024-01-15T00:31:08;36.03;;;16.93;;
17259;SDS011;8746;49.230;9.220;2024-01-15T00:33:33;37.97;;;18.77;;
17259;SDS011;8746;49.230;9.220;2024-01-15T00:35:59;35.63;;;17.43;;
17259;SDS011;8746;49.230;9.220;2024-01-15T00:38:24;31.07;;;15.90;;
17259;SDS011;8746;49.230;9.220;2024-01-15T00:40:49;35.60;;;17.23;;
17259;SDS011;8746;49.230;9.220;2024-01-15T00:43:15;37.47;;;17.87;;
17259;SDS011;8746;49.230;9.220;2024-01-15T00:45:43;42.13;;;17.90;;
17259;SDS011;8746;49.230;9.220;2024-01-15T00:48:08;36.83;;;18.00;;
17259;SDS011;8746;49.230;9.220;2024-01-15T00:50:34;35.07;;;16.53;;
17259;SDS011;8746;49.230;9.220;2024-01-15T00:52:59;40.00;;;18.57;;
17259;SDS011;8746;49.230;9.220;2024-01-15T00:55:24;37.43;;;16.87;;
17259;SDS011;8746;49.230;9.220;2024-01-15T00:57:49;40.47;;;19.10;;
17259;SDS011;8746;49.230;9.220;2024-01-15T01:00:15;40.57;;;19.00;;
17259;SDS011;8746;49.230;9.220;2024-01-15T01:02:40;40.73;;;18.80;;
17259;SDS011;8746;49.230;9.220;2024-01-15T01:05:06;36.97;;;17.73;;
17259;SDS011;8746;49.230;9.220;2024-01-15T01:07:32;37.50;;;18.37;;
17259;SDS011;8746;49.230;9.220;2024-01-15T01:09:57;35.00;;;16.93;;
17259;SDS011;8746;49.230;9.220;2024-01-15T01:12:23;37.53;;;16.97;;
17259;SDS011;8746;49.230;9.220;2024-01-15T01:14:48;41.27;;;16.70;;
17259;SDS011;8746;49.230;9.220;2024-01-15T01:17:13;35.03;;;17.63;;
17259;SDS011;8746;49.230;9.220;2024-01-15T01:19:39;32.27;;;14.37;;
17259;SDS011;8746;49.230;9.220;2024-01-15T01:22:04;33.07;;;16.03;;
17259;SDS011;8746;49.230;9.220;2024-01-15T01:24:30;34.97;;;15.40;;
17259;SDS011;8746;49.230;9.220;2024-01-15T01:26:55;31.27;;;15.73;;
17259;SDS011;8746;49.230;9.220;2024-01-15T01:29:20;34.73;;;16.00;;
17259;SDS011;8746;49.230;9.220;2024-01-15T01:31:46;34.47;;;16.23;;
17259;SDS011;8746;49.230;9.220;2024-01-15T01:34:15;30.57;;;15.87;;
17259;SDS011;8746;49.230;9.220;2024-01-15T01:36:44;33.80;;;15.60;;
17259;SDS011;8746;49.230;9.220;2024-01-15T01:39:10;32.20;;;15.47;;
17259;SDS011;8746;49.230;9.220;2024-01-15T01:41:35;35.80;;;16.67;;
17259;SDS011;8746;49.230;9.220;2024-01-15T01:44:01;34.90;;;16.73;;
17259;SDS011;8746;49.230;9.220;2024-01-15T01:46:27;31.03;;;14.67;;
17259;SDS011;8746;49.230;9.220;2024-01-15T01:48:56;32.90;;;16.63;;
17259;SDS011;8746;49.230;9.220;2024-01-15T01:51:22;37.60;;;16.93;;
17259;SDS011;8746;49.230;9.220;2024-01-15T01:53:49;35.53;;;16.73;;
17259;SDS011;8746;49.230;9.220;2024-01-15T01:56:16;29.43;;;15.40;;
17259;SDS011;8746;49.230;9.220;2024-01-15T01:58:43;31.30;;;15.37;;
17259;SDS011;8746;49.230;9.220;2024-01-15T02:01:09;33.40;;;15.33;;
17259;SDS011;8746;49.230;9.220;2024-01-15T02:03:36;34.50;;;16.17;;
17259;SDS011;8746;49.230;9.220;2024-01-15T02:06:02;31.13;;;14.77;;
17259;SDS011;8746;49.230;9.220;2024-01-15T02:08:28;32.30;;;15.40;;
17259;SDS011;8746;49.230;9.220;2024-01-15T02:10:54;30.33;;;14.90;;
17259;SDS011;8746;49.230;9.220;2024-01-15T02:13:20;34.97;;;14.70;;
17259;SDS011;8746;49.230;9.220;2024-01-15T02:15:45;29.60;;;14.60;;
17259;SDS011;8746;49.230;9.220;2024-01-15T02:18:11;29.20;;;13.80;;
17259;SDS011;8746;49.230;9.220;2024-01-15T02:20:36;28.70;;;13.53;;
17259;SDS011;8746;49.230;9.220;2024-01-15T02:23:07;30.40;;;14.00;;
17259;SDS011;8746;49.230;9.220;2024-01-15T02:25:33;31.57;;;13.97;;
17259;SDS011;8746;49.230;9.220;2024-01-15T02:27:58;29.70;;;13.47;;
17259;SDS011;8746;49.230;9.220;2024-01-15T02:30:24;30.97;;;13.80;;
17259;SDS011;8746;49.230;9.220;2024-01-15T02:32:50;29.00;;;14.43;;
17259;SDS011;8746;49.230;9.220;2024-01-15T02:35:16;26.70;;;13.70;;
17259;SDS011;8746;49.230;9.220;2024-01-15T02:37:41;30.10;;;14.03;;
17259;SDS011;8746;49.230;9.220;2024-01-15T02:40:07;28.63;;;14.67;;
17259;SDS011;8746;49.230;9.220;2024-01-15T02:42:33;27.60;;;13.50;;
17259;SDS011;8746;49.230;9.220;2024-01-15T02:44:58;31.77;;;14.33;;
17259;SDS011;8746;49.230;9.220;2024-01-15T02:47:23;28.63;;;13.27;;
17259;SDS011;8746;49.230;9.220;2024-01-15T02:49:49;29.57;;;13.07;;
17259;SDS011;8746;49.230;9.220;2024-01-15T02:52:14;25.27;;;12.23;;
17259;SDS011;8746;49.230;9.220;2024-01-15T02:54:39;28.70;;;13.87;;
17259;SDS011;8746;49.230;9.220;2024-01-15T02:57:05;31.30;;;12.77;;
17259;SDS011;8746;49.230;9.220;2024-01-15T02:59:30;27.53;;;13.83;;
17259;SDS011;8746;49.230;9.220;2024-01-15T03:01:55;29.53;;;14.00;;
17259;SDS011;8746;49.230;9.220;2024-01-15T03:04:20;26.97;;;13.23;;
17259;SDS011;8746;49.230;9.220;2024-01-15T03:06:46;31.90;;;13.80;;
17259;SDS011;8746;49.230;9.220;2024-01-15T03:09:11;28.77;;;12.93;;
17259;SDS011;8746;49.230;9.220;2024-01-15T03:11:37;26.73;;;13.70;;
17259;SDS011;8746;49.230;9.220;2024-01-15T03:14:04;28.27;;;13.57;;
17259;SDS011;8746;49.230;9.220;2024-01-15T03:16:29;25.90;;;13.87;;
17259;SDS011;8746;49.230;9.220;2024-01-15T03:18:54;27.70;;;14.23;;
17259;SDS011;8746;49.230;9.220;2024-01-15T03:21:20;33.10;;;15.07;;
17259;SDS011;8746;49.230;9.220;2024-01-15T03:23:45;28.57;;;14.00;;
17259;SDS011;8746;49.230;9.220;2024-01-15T03:26:11;28.37;;;14.20;;
17259;SDS011;8746;49.230;9.220;2024-01-15T03:28:36;29.03;;;13.83;;
17259;SDS011;8746;49.230;9.220;2024-01-15T03:31:01;28.63;;;13.17;;
17259;SDS011;8746;49.230;9.220;2024-01-15T03:33:27;27.00;;;13.63;;
17259;SDS011;8746;49.230;9.220;2024-01-15T03:35:52;26.47;;;13.30;;
17259;SDS011;8746;49.230;9.220;2024-01-15T03:38:18;29.87;;;13.80;;
17259;SDS011;8746;49.230;9.220;2024-01-15T03:40:43;32.37;;;14.90;;
17259;SDS011;8746;49.230;9.220;2024-01-15T03:43:08;32.10;;;15.23;;
17259;SDS011;8746;49.230;9.220;2024-01-15T03:45:33;30.97;;;14.70;;
17259;SDS011;8746;49.230;9.220;2024-01-15T03:48:01;33.67;;;14.47;;
17259;SDS011;8746;49.230;9.220;2024-01-15T03:50:26;31.13;;;15.03;;
17259;SDS011;8746;49.230;9.220;2024-01-15T03:52:52;34.50;;;14.67;;
17259;SDS011;8746;49.230;9.220;2024-01-15T03:55:17;31.00;;;14.90;;
17259;SDS011;8746;49.230;9.220;2024-01-15T03:57:42;26.33;;;12.90;;
17259;SDS011;8746;49.230;9.220;2024-01-15T04:00:08;30.47;;;14.80;;
17259;SDS011;8746;49.230;9.220;2024-01-15T04:02:33;30.77;;;15.03;;
17259;SDS011;8746;49.230;9.220;2024-01-15T04:04:59;32.10;;;15.00;;
17259;SDS011;8746;49.230;9.220;2024-01-15T04:07:24;30.90;;;15.10;;
17259;SDS011;8746;49.230;9.220;2024-01-15T04:09:50;39.43;;;20.40;;
17259;SDS011;8746;49.230;9.220;2024-01-15T04:12:15;31.57;;;15.47;;
17259;SDS011;8746;49.230;9.220;2024-01-15T04:14:40;30.13;;;14.13;;
17259;SDS011;8746;49.230;9.220;2024-01-15T04:17:05;29.70;;;14.40;;
17259;SDS011;8746;49.230;9.220;2024-01-15T04:19:31;30.40;;;15.30;;
17259;SDS011;8746;49.230;9.220;2024-01-15T04:21:56;26.73;;;13.90;;
17259;SDS011;8746;49.230;9.220;2024-01-15T04:24:21;28.83;;;15.13;;
17259;SDS011;8746;49.230;9.220;2024-01-15T04:26:47;34.30;;;15.37;;
17259;SDS011;8746;49.230;9.220;2024-01-15T04:29:12;27.83;;;15.27;;
17259;SDS011;8746;49.230;9.220;2024-01-15T04:31:37;29.57;;;13.87;;
17259;SDS011;8746;49.230;9.220;2024-01-15T04:34:03;27.77;;;14.43;;
17259;SDS011;8746;49.230;9.220;2024-01-15T04:36:28;31.47;;;15.40;;
17259;SDS011;8746;49.230;9.220;2024-01-15T04:38:53;26.93;;;14.03;;
17259;SDS011;8746;49.230;9.220;2024-01-15T04:41:19;30.40;;;15.13;;
17259;SDS011;8746;49.230;9.220;2024-01-15T04:43:44;31.07;;;14.57;;
17259;SDS011;8746;49.230;9.220;2024-01-15T04:46:09;30.03;;;14.13;;
17259;SDS011;8746;49.230;9.220;2024-01-15T04:48:35;26.40;;;14.07;;
17259;SDS011;8746;49.230;9.220;2024-01-15T04:51:00;26.67;;;13.50;;
17259;SDS011;8746;49.230;9.220;2024-01-15T04:53:28;27.47;;;14.17;;
17259;SDS011;8746;49.230;9.220;2024-01-15T04:55:53;29.43;;;14.60;;
17259;SDS011;8746;49.230;9.220;2024-01-15T04:58:19;29.93;;;14.87;;
17259;SDS011;8746;49.230;9.220;2024-01-15T05:00:44;27.10;;;14.10;;
17259;SDS011;8746;49.230;9.220;2024-01-15T05:03:09;29.37;;;14.20;;
17259;SDS011;8746;49.230;9.220;2024-01-15T05:05:35;30.90;;;14.40;;
17259;SDS011;8746;49.230;9.220;2024-01-15T05:08:00;28.97;;;14.27;;
17259;SDS011;8746;49.230;9.220;2024-01-15T05:10:25;30.30;;;14.40;;
17259;SDS011;8746;49.230;9.220;2024-01-15T05:12:51;25.10;;;14.23;;
17259;SDS011;8746;49.230;9.220;2024-01-15T05:15:16;29.40;;;14.40;;
17259;SDS011;8746;49.230;9.220;2024-01-15T05:17:41;29.93;;;14.27;;
17259;SDS011;8746;49.230;9.220;2024-01-15T05:20:07;24.30;;;13.43;;
17259;SDS011;8746;49.230;9.220;2024-01-15T05:22:32;27.60;;;13.87;;
17259;SDS011;8746;49.230;9.220;2024-01-15T05:24:58;26.17;;;13.20;;
17259;SDS011;8746;49.230;9.220;2024-01-15T05:27:23;33.20;;;14.00;;
17259;SDS011;8746;49.230;9.220;2024-01-15T05:29:48;30.97;;;14.00;;
17259;SDS011;8746;49.230;9.220;2024-01-15T05:32:15;27.70;;;13.30;;
17259;SDS011;8746;49.230;9.220;2024-01-15T05:34:40;24.77;;;13.10;;
17259;SDS011;8746;49.230;9.220;2024-01-15T05:37:05;28.67;;;14.17;;
17259;SDS011;8746;49.230;9.220;2024-01-15T05:39:31;26.40;;;13.83;;
17259;SDS011;8746;49.230;9.220;2024-01-15T05:41:56;28.13;;;13.27;;
17259;SDS011;8746;49.230;9.220;2024-01-15T05:44:21;24.53;;;12.60;;
17259;SDS011;8746;49.230;9.220;2024-01-15T05:46:46;27.53;;;14.37;;
17259;SDS011;8746;49.230;9.220;2024-01-15T05:49:12;29.63;;;13.47;;
17259;SDS011;8746;49.230;9.220;2024-01-15T05:51:37;28.87;;;13.83;;
17259;SDS011;8746;49.230;9.220;2024-01-15T05:54:03;24.90;;;13.80;;
17259;SDS011;8746;49.230;9.220;2024-01-15T05:56:28;27.23;;;13.03;;
17259;SDS011;8746;49.230;9.220;2024-01-15T05:58:53;23.17;;;12.97;;
17259;SDS011;8746;49.230;9.220;2024-01-15T06:01:19;32.07;;;14.07;;
17259;SDS011;8746;49.230;9.220;2024-01-15T06:03:44;24.77;;;14.07;;
17259;SDS011;8746;49.230;9.220;2024-01-15T06:06:09;26.87;;;13.30;;
17259;SDS011;8746;49.230;9.220;2024-01-15T06:08:35;25.37;;;13.60;;
17259;SDS011;8746;49.230;9.220;2024-01-15T06:11:00;24.53;;;13.37;;
17259;SDS011;8746;49.230;9.220;2024-01-15T06:13:25;24.83;;;12.37;;
17259;SDS011;8746;49.230;9.220;2024-01-15T06:15:51;23.60;;;12.83;;
17259;SDS011;8746;49.230;9.220;2024-01-15T06:18:16;20.23;;;10.80;;
17259;SDS011;8746;49.230;9.220;2024-01-15T06:20:41;23.57;;;12.90;;
17259;SDS011;8746;49.230;9.220;2024-01-15T06:23:07;22.90;;;11.30;;
17259;SDS011;8746;49.230;9.220;2024-01-15T06:25:32;26.40;;;13.20;;
17259;SDS011;8746;49.230;9.220;2024-01-15T06:27:58;23.17;;;12.17;;
17259;SDS011;8746;49.230;9.220;2024-01-15T06:30:26;23.10;;;12.60;;
17259;SDS011;8746;49.230;9.220;2024-01-15T06:32:51;20.07;;;11.87;;
17259;SDS011;8746;49.230;9.220;2024-01-15T06:35:17;24.27;;;12.57;;
17259;SDS011;8746;49.230;9.220;2024-01-15T06:37:42;21.30;;;11.77;;
17259;SDS011;8746;49.230;9.220;2024-01-15T06:40:07;22.17;;;11.83;;
17259;SDS011;8746;49.230;9.220;2024-01-15T06:42:33;22.83;;;12.17;;
17259;SDS011;8746;49.230;9.220;2024-01-15T06:44:59;20.97;;;10.20;;
17259;SDS011;8746;49.230;9.220;2024-01-15T06:47:24;21.23;;;11.30;;
17259;SDS011;8746;49.230;9.220;2024-01-15T06:49:50;23.30;;;13.03;;
17259;SDS011;8746;49.230;9.220;2024-01-15T06:52:16;22.10;;;12.70;;
17259;SDS011;8746;49.230;9.220;2024-01-15T06:54:42;21.50;;;11.37;;
17259;SDS011;8746;49.230;9.220;2024-01-15T06:57:07;22.23;;;11.63;;
17259;SDS011;8746;49.230;9.220;2024-01-15T06:59:33;25.83;;;13.13;;
17259;SDS011;8746;49.230;9.220;2024-01-15T07:02:00;19.37;;;11.03;;
17259;SDS011;8746;49.230;9.220;2024-01-15T07:04:25;24.77;;;13.53;;
17259;SDS011;8746;49.230;9.220;2024-01-15T07:06:50;24.30;;;12.40;;
17259;SDS011;8746;49.230;9.220;2024-01-15T07:09:16;21.03;;;12.10;;
17259;SDS011;8746;49.230;9.220;2024-01-15T07:11:45;22.83;;;12.87;;
17259;SDS011;8746;49.230;9.220;2024-01-15T07:14:11;30.13;;;15.20;;
17259;SDS011;8746;49.230;9.220;2024-01-15T07:16:37;25.90;;;13.27;;
17259;SDS011;8746;49.230;9.220;2024-01-15T07:19:02;23.57;;;13.17;;
17259;SDS011;8746;49.230;9.220;2024-01-15T07:21:27;23.73;;;12.80;;
17259;SDS011;8746;49.230;9.220;2024-01-15T07:23:53;21.33;;;11.50;;
17259;SDS011;8746;49.230;9.220;2024-01-15T07:26:18;23.70;;;12.63;;
17259;SDS011;8746;49.230;9.220;2024-01-15T07:28:43;22.60;;;12.20;;
17259;SDS011;8746;49.230;9.220;2024-01-15T07:31:09;20.57;;;11.00;;
17259;SDS011;8746;49.230;9.220;2024-01-15T07:33:34;23.57;;;12.40;;
17259;SDS011;8746;49.230;9.220;2024-01-15T07:35:59;26.90;;;13.93;;
17259;SDS011;8746;49.230;9.220;2024-01-15T07:38:25;30.00;;;15.53;;
17259;SDS011;8746;49.230;9.220;2024-01-15T07:40:50;31.33;;;16.93;;
17259;SDS011;8746;49.230;9.220;2024-01-15T07:43:15;41.77;;;24.53;;
17259;SDS011;8746;49.230;9.220;2024-01-15T07:45:41;25.23;;;13.83;;
17259;SDS011;8746;49.230;9.220;2024-01-15T07:48:06;21.80;;;12.90;;
17259;SDS011;8746;49.230;9.220;2024-01-15T07:50:31;24.67;;;12.80;;
17259;SDS011;8746;49.230;9.220;2024-01-15T07:52:57;22.07;;;12.17;;
17259;SDS011;8746;49.230;9.220;2024-01-15T07:55:22;23.70;;;13.53;;
17259;SDS011;8746;49.230;9.220;2024-01-15T07:57:47;22.70;;;12.73;;
17259;SDS011;8746;49.230;9.220;2024-01-15T08:00:13;22.03;;;12.83;;
17259;SDS011;8746;49.230;9.220;2024-01-15T08:02:38;24.47;;;13.10;;
17259;SDS011;8746;49.230;9.220;2024-01-15T08:05:04;23.13;;;12.87;;
17259;SDS011;8746;49.230;9.220;2024-01-15T08:07:29;25.00;;;13.67;;
17259;SDS011;8746;49.230;9.220;2024-01-15T08:09:55;20.13;;;13.23;;
17259;SDS011;8746;49.230;9.220;2024-01-15T08:12:20;22.97;;;13.33;;
17259;SDS011;8746;49.230;9.220;2024-01-15T08:14:45;25.90;;;13.67;;
17259;SDS011;8746;49.230;9.220;2024-01-15T08:17:11;24.37;;;14.10;;
17259;SDS011;8746;49.230;9.220;2024-01-15T08:19:36;22.03;;;12.53;;
17259;SDS011;8746;49.230;9.220;2024-01-15T08:22:01;24.90;;;13.73;;
17259;SDS011;8746;49.230;9.220;2024-01-15T08:24:27;27.43;;;16.53;;
17259;SDS011;8746;49.230;9.220;2024-01-15T08:26:53;23.53;;;15.93;;
17259;SDS011;8746;49.230;9.220;2024-01-15T08:29:19;24.20;;;14.87;;
17259;SDS011;8746;49.230;9.220;2024-01-15T08:31:46;29.93;;;16.57;;
17259;SDS011;8746;49.230;9.220;2024-01-15T08:34:11;26.13;;;14.93;;
17259;SDS011;8746;49.230;9.220;2024-01-15T08:36:37;24.03;;;14.30;;
17259;SDS011;8746;49.230;9.220;2024-01-15T08:39:02;25.47;;;14.03;;
17259;SDS011;8746;49.230;9.220;2024-01-15T08:41:29;26.50;;;13.70;;
17259;SDS011;8746;49.230;9.220;2024-01-15T08:43:55;26.33;;;14.03;;
17259;SDS011;8746;49.230;9.220;2024-01-15T08:46:21;25.03;;;15.50;;
17259;SDS011;8746;49.230;9.220;2024-01-15T08:48:47;27.20;;;15.57;;
17259;SDS011;8746;49.230;9.220;2024-01-15T08:51:12;25.43;;;14.70;;
17259;SDS011;8746;49.230;9.220;2024-01-15T08:53:37;24.97;;;14.93;;
17259;SDS011;8746;49.230;9.220;2024-01-15T08:56:04;29.13;;;14.33;;
17259;SDS011;8746;49.230;9.220;2024-01-15T08:58:30;24.00;;;14.33;;
17259;SDS011;8746;49.230;9.220;2024-01-15T09:00:56;27.87;;;14.20;;
17259;SDS011;8746;49.230;9.220;2024-01-15T09:03:21;26.13;;;14.67;;
17259;SDS011;8746;49.230;9.220;2024-01-15T09:05:47;26.60;;;16.00;;
17259;SDS011;8746;49.230;9.220;2024-01-15T09:08:13;26.93;;;14.57;;
17259;SDS011;8746;49.230;9.220;2024-01-15T09:10:39;29.37;;;15.30;;
17259;SDS011;8746;49.230;9.220;2024-01-15T09:13:04;25.30;;;13.93;;
17259;SDS011;8746;49.230;9.220;2024-01-15T09:15:29;27.80;;;14.97;;
17259;SDS011;8746;49.230;9.220;2024-01-15T09:17:55;25.17;;;14.93;;
17259;SDS011;8746;49.230;9.220;2024-01-15T09:20:22;28.17;;;15.03;;
17259;SDS011;8746;49.230;9.220;2024-01-15T09:22:48;26.13;;;14.70;;
17259;SDS011;8746;49.230;9.220;2024-01-15T09:25:13;24.53;;;14.27;;
17259;SDS011;8746;49.230;9.220;2024-01-15T09:27:39;28.60;;;15.10;;
17259;SDS011;8746;49.230;9.220;2024-01-15T09:30:04;26.23;;;14.27;;
17259;SDS011;8746;49.230;9.220;2024-01-15T09:32:30;29.20;;;15.27;;
17259;SDS011;8746;49.230;9.220;2024-01-15T09:34:55;29.23;;;15.23;;
17259;SDS011;8746;49.230;9.220;2024-01-15T09:37:21;26.47;;;15.83;;
17259;SDS011;8746;49.230;9.220;2024-01-15T09:39:46;25.80;;;14.33;;
17259;SDS011;8746;49.230;9.220;2024-01-15T09:42:13;24.17;;;13.90;;
17259;SDS011;8746;49.230;9.220;2024-01-15T09:44:39;25.23;;;13.97;;
17259;SDS011;8746;49.230;9.220;2024-01-15T09:47:04;23.97;;;13.73;;
17259;SDS011;8746;49.230;9.220;2024-01-15T09:49:30;24.80;;;14.00;;
17259;SDS011;8746;49.230;9.220;2024-01-15T09:51:56;24.80;;;13.50;;
17259;SDS011;8746;49.230;9.220;2024-01-15T09:54:23;22.97;;;13.27;;
17259;SDS011;8746;49.230;9.220;2024-01-15T09:56:48;23.43;;;14.13;;
17259;SDS011;8746;49.230;9.220;2024-01-15T09:59:20;25.30;;;13.93;;
17259;SDS011;8746;49.230;9.220;2024-01-15T10:01:47;25.23;;;13.53;;
17259;SDS011;8746;49.230;9.220;2024-01-15T10:04:15;25.80;;;13.07;;
17259;SDS011;8746;49.230;9.220;2024-01-15T10:06:43;23.00;;;13.07;;
17259;SDS011;8746;49.230;9.220;2024-01-15T10:09:13;22.17;;;13.00;;
17259;SDS011;8746;49.230;9.220;2024-01-15T10:11:42;22.37;;;13.20;;
17259;SDS011;8746;49.230;9.220;2024-01-15T10:14:12;21.90;;;12.50;;
17259;SDS011;8746;49.230;9.220;2024-01-15T10:16:38;21.83;;;12.70;;
17259;SDS011;8746;49.230;9.220;2024-01-15T10:19:04;22.93;;;13.13;;
17259;SDS011;8746;49.230;9.220;2024-01-15T10:21:31;21.53;;;12.90;;
17259;SDS011;8746;49.230;9.220;2024-01-15T10:24:00;23.60;;;13.23;;
17259;SDS011;8746;49.230;9.220;2024-01-15T10:26:27;21.20;;;12.73;;
17259;SDS011;8746;49.230;9.220;2024-01-15T10:28:53;20.17;;;11.67;;
17259;SDS011;8746;49.230;9.220;2024-01-15T10:31:18;24.53;;;13.50;;
17259;SDS011;8746;49.230;9.220;2024-01-15T10:33:50;21.67;;;12.93;;
17259;SDS011;8746;49.230;9.220;2024-01-15T10:36:16;19.00;;;12.17;;
17259;SDS011;8746;49.230;9.220;2024-01-15T10:38:44;21.17;;;11.90;;
17259;SDS011;8746;49.230;9.220;2024-01-15T10:41:11;19.77;;;11.70;;
17259;SDS011;8746;49.230;9.220;2024-01-15T10:43:36;22.40;;;12.57;;
17259;SDS011;8746;49.230;9.220;2024-01-15T10:46:02;21.77;;;11.50;;
17259;SDS011;8746;49.230;9.220;2024-01-15T10:48:28;21.40;;;12.07;;
17259;SDS011;8746;49.230;9.220;2024-01-15T10:50:55;22.00;;;12.13;;
17259;SDS011;8746;49.230;9.220;2024-01-15T10:53:21;22.43;;;11.60;;
17259;SDS011;8746;49.230;9.220;2024-01-15T10:55:48;21.63;;;11.83;;
17259;SDS011;8746;49.230;9.220;2024-01-15T10:58:15;23.10;;;13.00;;
17259;SDS011;8746;49.230;9.220;2024-01-15T11:00:42;20.73;;;11.63;;
17259;SDS011;8746;49.230;9.220;2024-01-15T11:03:08;21.70;;;12.07;;
17259;SDS011;8746;49.230;9.220;2024-01-15T11:05:53;23.10;;;12.73;;
17259;SDS011;8746;49.230;9.220;2024-01-15T11:08:18;23.07;;;13.30;;
17259;SDS011;8746;49.230;9.220;2024-01-15T11:18:28;24.33;;;12.90;;
17259;SDS011;8746;49.230;9.220;2024-01-15T11:29:06;24.60;;;13.33;;
17259;SDS011;8746;49.230;9.220;2024-01-15T11:34:05;25.47;;;13.50;;
17259;SDS011;8746;49.230;9.220;2024-01-15T11:41:59;24.83;;;14.17;;
17259;SDS011;8746;49.230;9.220;2024-01-15T11:44:26;24.43;;;14.83;;
17259;SDS011;8746;49.230;9.220;2024-01-15T11:52:34;24.37;;;14.40;;
17259;SDS011;8746;49.230;9.220;2024-01-15T11:55:01;26.63;;;13.87;;
17259;SDS011;8746;49.230;9.220;2024-01-15T11:57:45;23.97;;;13.87;;
17259;SDS011;8746;49.230;9.220;2024-01-15T12:00:12;23.33;;;14.17;;
17259;SDS011;8746;49.230;9.220;2024-01-15T12:02:45;25.07;;;13.93;;
17259;SDS011;8746;49.230;9.220;2024-01-15T12:05:11;27.53;;;14.07;;
17259;SDS011;8746;49.230;9.220;2024-01-15T12:07:41;23.23;;;13.57;;
17259;SDS011;8746;49.230;9.220;2024-01-15T12:10:08;25.07;;;13.80;;
17259;SDS011;8746;49.230;9.220;2024-01-15T12:12:59;21.47;;;11.90;;
17259;SDS011;8746;49.230;9.220;2024-01-15T12:15:24;21.87;;;11.70;;
17259;SDS011;8746;49.230;9.220;2024-01-15T12:17:51;27.40;;;17.30;;
17259;SDS011;8746;49.230;9.220;2024-01-15T12:20:17;25.50;;;13.57;;
17259;SDS011;8746;49.230;9.220;2024-01-15T12:22:43;20.20;;;11.70;;
17259;SDS011;8746;49.230;9.220;2024-01-15T12:25:08;18.63;;;11.27;;
17259;SDS011;8746;49.230;9.220;2024-01-15T12:27:34;21.63;;;11.97;;
17259;SDS011;8746;49.230;9.220;2024-01-15T12:30:00;22.17;;;12.70;;
17259;SDS011;8746;49.230;9.220;2024-01-15T12:32:25;22.80;;;12.00;;
17259;SDS011;8746;49.230;9.220;2024-01-15T12:34:51;18.37;;;12.00;;
17259;SDS011;8746;49.230;9.220;2024-01-15T12:37:19;21.10;;;12.23;;
17259;SDS011;8746;49.230;9.220;2024-01-15T12:39:45;24.93;;;12.93;;
17259;SDS011;8746;49.230;9.220;2024-01-15T12:42:11;20.33;;;12.57;;
17259;SDS011;8746;49.230;9.220;2024-01-15T12:44:39;21.17;;;11.57;;
17259;SDS011;8746;49.230;9.220;2024-01-15T12:47:04;21.80;;;12.17;;
17259;SDS011;8746;49.230;9.220;2024-01-15T12:49:30;18.47;;;10.70;;
17259;SDS011;8746;49.230;9.220;2024-01-15T12:51:57;25.67;;;13.10;;
17259;SDS011;8746;49.230;9.220;2024-01-15T12:54:23;27.27;;;14.00;;
17259;SDS011;8746;49.230;9.220;2024-01-15T12:56:49;20.43;;;11.97;;
17259;SDS011;8746;49.230;9.220;2024-01-15T12:59:14;18.10;;;11.20;;
17259;SDS011;8746;49.230;9.220;2024-01-15T13:01:40;22.43;;;12.33;;
17259;SDS011;8746;49.230;9.220;2024-01-15T13:04:06;19.47;;;11.60;;
17259;SDS011;8746;49.230;9.220;2024-01-15T13:06:34;18.10;;;11.53;;
17259;SDS011;8746;49.230;9.220;2024-01-15T13:09:02;16.67;;;10.47;;
17259;SDS011;8746;49.230;9.220;2024-01-15T13:11:30;17.47;;;11.53;;
17259;SDS011;8746;49.230;9.220;2024-01-15T13:13:56;18.60;;;11.77;;
17259;SDS011;8746;49.230;9.220;2024-01-15T13:16:22;18.30;;;11.87;;
17259;SDS011;8746;49.230;9.220;2024-01-15T13:18:47;18.73;;;11.50;;
17259;SDS011;8746;49.230;9.220;2024-01-15T13:21:15;16.77;;;10.90;;
17259;SDS011;8746;49.230;9.220;2024-01-15T13:23:40;17.60;;;11.57;;
17259;SDS011;8746;49.230;9.220;2024-01-15T13:26:06;16.53;;;11.77;;
17259;SDS011;8746;49.230;9.220;2024-01-15T13:28:32;17.80;;;11.80;;
17259;SDS011;8746;49.230;9.220;2024-01-15T13:30:59;18.03;;;12.50;;
17259;SDS011;8746;49.230;9.220;2024-01-15T13:33:24;18.70;;;12.30;;
17259;SDS011;8746;49.230;9.220;2024-01-15T13:35:50;20.73;;;11.93;;
17259;SDS011;8746;49.230;9.220;2024-01-15T13:38:15;19.27;;;12.20;;
17259;SDS011;8746;49.230;9.220;2024-01-15T13:40:41;17.33;;;11.70;;
17259;SDS011;8746;49.230;9.220;2024-01-15T13:43:06;15.40;;;11.37;;
17259;SDS011;8746;49.230;9.220;2024-01-15T13:45:33;17.80;;;11.17;;
17259;SDS011;8746;49.230;9.220;2024-01-15T13:47:59;17.57;;;12.23;;
17259;SDS011;8746;49.230;9.220;2024-01-15T13:50:25;16.97;;;11.73;;
17259;SDS011;8746;49.230;9.220;2024-01-15T13:52:50;20.30;;;11.40;;
17259;SDS011;8746;49.230;9.220;2024-01-15T13:55:15;14.77;;;10.87;;
17259;SDS011;8746;49.230;9.220;2024-01-15T13:57:41;14.53;;;10.10;;
17259;SDS011;8746;49.230;9.220;2024-01-15T14:00:06;15.63;;;10.37;;
17259;SDS011;8746;49.230;9.220;2024-01-15T14:02:37;18.50;;;11.40;;
17259;SDS011;8746;49.230;9.220;2024-01-15T14:05:02;16.23;;;11.33;;
17259;SDS011;8746;49.230;9.220;2024-01-15T14:07:28;12.20;;;9.13;;
17259;SDS011;8746;49.230;9.220;2024-01-15T14:09:53;14.97;;;9.10;;
17259;SDS011;8746;49.230;9.220;2024-01-15T14:12:18;13.27;;;8.77;;
17259;SDS011;8746;49.230;9.220;2024-01-15T14:14:44;13.53;;;8.30;;
17259;SDS011;8746;49.230;9.220;2024-01-15T14:17:09;13.07;;;8.67;;
17259;SDS011;8746;49.230;9.220;2024-01-15T14:19:34;11.87;;;9.10;;
17259;SDS011;8746;49.230;9.220;2024-01-15T14:22:01;11.93;;;8.27;;
17259;SDS011;8746;49.230;9.220;2024-01-15T14:24:26;12.10;;;8.43;;
17259;SDS011;8746;49.230;9.220;2024-01-15T14:26:52;11.60;;;9.10;;
17259;SDS011;8746;49.230;9.220;2024-01-15T14:29:17;11.57;;;8.00;;
17259;SDS011;8746;49.230;9.220;2024-01-15T14:31:45;14.20;;;9.47;;
17259;SDS011;8746;49.230;9.220;2024-01-15T14:34:11;12.57;;;8.90;;
17259;SDS011;8746;49.230;9.220;2024-01-15T14:36:36;13.13;;;8.63;;
17259;SDS011;8746;49.230;9.220;2024-01-15T14:39:02;12.57;;;9.37;;
17259;SDS011;8746;49.230;9.220;2024-01-15T14:41:27;12.57;;;8.80;;
17259;SDS011;8746;49.230;9.220;2024-01-15T14:43:53;12.00;;;9.27;;
17259;SDS011;8746;49.230;9.220;2024-01-15T14:46:18;11.63;;;7.27;;
17259;SDS011;8746;49.230;9.220;2024-01-15T14:48:43;14.40;;;9.03;;
17259;SDS011;8746;49.230;9.220;2024-01-15T14:51:09;12.40;;;8.90;;
17259;SDS011;8746;49.230;9.220;2024-01-15T14:53:35;14.33;;;10.00;;
17259;SDS011;8746;49.230;9.220;2024-01-15T14:56:00;15.53;;;11.10;;
17259;SDS011;8746;49.230;9.220;2024-01-15T14:58:27;12.80;;;10.07;;